Time;durP1;ratioP1;P1;durP2;ratioP2;P2;SDS_P1;SDS_P2;PMS_P1;PMS_P2;Temp;Humidity;BMP_temperature;BMP_pressure;BME280_temperature;BME280_humidity;BME280_pressure;Samples;Min_cycle;Max_cycle;Signal;HPM_P1;HPM_P2
2024/04/03 00:01:35;;;;;;;1.57;1.20;;;11.20;99.90;;;;;;4935180;28;20228;-71
2024/04/03 00:04:01;;;;;;;1.23;1.13;;;11.20;99.90;;;;;;4933305;28;20491;-70
2024/04/03 00:06:27;;;;;;;2.27;1.63;;;11.10;99.90;;;;;;4931922;28;20204;-70
2024/04/03 00:08:56;;;;;;;4.13;1.37;;;11.10;99.90;;;;;;4936952;28;20551;-71
2024/04/03 00:11:21;;;;;;;2.00;1.53;;;11.10;99.90;;;;;;4937336;28;20483;-71
2024/04/03 00:13:48;;;;;;;3.20;1.37;;;11.10;99.90;;;;;;4933057;28;20514;-70
2024/04/03 00:16:14;;;;;;;3.20;1.80;;;11.20;99.90;;;;;;4934464;28;20204;-71
2024/04/03 00:18:41;;;;;;;2.87;2.00;;;11.20;99.90;;;;;;4930309;28;20483;-70
2024/04/03 00:21:06;;;;;;;6.47;2.00;;;11.30;99.90;;;;;;4937053;28;20224;-70
2024/04/03 00:23:33;;;;;;;3.10;1.20;;;11.20;99.90;;;;;;4938553;28;20495;-70
2024/04/03 00:26:01;;;;;;;2.83;1.60;;;11.30;99.90;;;;;;4928389;28;20291;-70
2024/04/03 00:28:30;;;;;;;3.20;2.10;;;11.20;99.90;;;;;;4935960;28;20457;-70
2024/04/03 00:31:00;;;;;;;4.13;2.80;;;11.20;99.90;;;;;;4933712;28;20543;-70
2024/04/03 00:33:27;;;;;;;3.93;1.70;;;11.10;99.90;;;;;;4933961;28;20418;-71
2024/04/03 00:35:57;;;;;;;3.77;1.80;;;11.20;99.90;;;;;;4936054;28;20472;-71
2024/04/03 00:38:23;;;;;;;5.13;1.50;;;11.20;99.90;;;;;;4933865;28;20463;-71
2024/04/03 00:40:54;;;;;;;2.03;1.80;;;11.20;99.90;;;;;;4936667;28;20991;-71
2024/04/03 00:43:22;;;;;;;5.43;1.80;;;11.30;99.90;;;;;;4932275;28;20491;-69
2024/04/03 00:45:49;;;;;;;5.33;2.47;;;11.30;99.90;;;;;;4936381;28;21005;-71
2024/04/03 00:48:16;;;;;;;3.33;2.67;;;11.30;99.90;;;;;;4923367;28;20488;-70
2024/04/03 00:50:43;;;;;;;2.33;1.80;;;11.30;99.90;;;;;;4929402;28;20468;-70
2024/04/03 00:53:10;;;;;;;5.53;2.63;;;11.20;99.90;;;;;;4931961;28;21076;-70
2024/04/03 00:55:36;;;;;;;4.00;2.57;;;11.20;99.90;;;;;;4941612;28;20542;-70
2024/04/03 00:58:04;;;;;;;10.13;2.50;;;11.20;99.90;;;;;;4938106;28;20475;-71
2024/04/03 01:00:33;;;;;;;2.50;2.20;;;11.20;99.90;;;;;;4931294;28;20803;-71
2024/04/03 01:03:00;;;;;;;7.87;2.67;;;11.10;99.90;;;;;;4930012;28;20601;-72
2024/04/03 01:05:26;;;;;;;5.20;4.30;;;11.10;99.90;;;;;;4929038;28;20460;-71
2024/04/03 01:07:52;;;;;;;2.67;2.40;;;11.20;99.90;;;;;;4934288;28;20455;-71
2024/04/03 01:10:18;;;;;;;3.23;2.57;;;11.30;99.90;;;;;;4938334;28;20213;-70
2024/04/03 01:12:46;;;;;;;2.90;2.37;;;11.30;99.90;;;;;;4927495;28;20861;-71
2024/04/03 01:15:11;;;;;;;10.47;2.20;;;11.30;99.90;;;;;;4941013;28;20559;-71
2024/04/03 01:17:39;;;;;;;2.97;2.40;;;11.40;99.90;;;;;;4935306;28;20475;-71
2024/04/03 01:20:06;;;;;;;1.90;1.60;;;11.40;99.90;;;;;;4937416;28;20205;-71
2024/04/03 01:22:33;;;;;;;2.77;2.27;;;11.40;99.90;;;;;;4937960;28;20510;-71
2024/04/03 01:25:01;;;;;;;2.13;1.93;;;11.40;99.90;;;;;;4931352;28;20478;-71
2024/04/03 01:27:28;;;;;;;2.43;1.70;;;11.30;99.90;;;;;;4923041;28;20459;-70
2024/04/03 01:29:54;;;;;;;0.90;0.60;;;11.20;99.90;;;;;;4931800;28;21029;-70
2024/04/03 01:32:23;;;;;;;1.30;1.17;;;11.30;99.90;;;;;;4943503;28;20876;-71
2024/04/03 01:34:49;;;;;;;4.10;2.30;;;11.30;99.90;;;;;;4937285;28;20216;-69
2024/04/03 01:37:17;;;;;;;6.73;2.27;;;11.30;99.90;;;;;;4933379;28;20944;-71
2024/04/03 01:39:43;;;;;;;2.13;1.67;;;11.30;99.90;;;;;;4933144;28;20476;-71
2024/04/03 01:42:11;;;;;;;2.00;1.47;;;11.30;99.90;;;;;;4935252;28;21394;-70
2024/04/03 01:44:37;;;;;;;4.33;2.23;;;11.30;99.90;;;;;;4930703;28;20588;-71
2024/04/03 01:47:04;;;;;;;6.13;2.27;;;11.20;99.90;;;;;;4926581;28;20464;-71
2024/04/03 01:49:30;;;;;;;5.33;2.83;;;11.20;99.90;;;;;;4936179;28;20475;-70
2024/04/03 01:51:57;;;;;;;1.43;1.33;;;11.20;99.90;;;;;;4930349;28;20848;-70
2024/04/03 01:54:23;;;;;;;1.87;1.57;;;11.30;99.90;;;;;;4932840;28;20204;-71
2024/04/03 01:56:50;;;;;;;2.80;2.30;;;11.30;99.90;;;;;;4931034;28;20452;-71
2024/04/03 01:59:17;;;;;;;3.83;2.47;;;11.30;99.90;;;;;;4936170;28;20570;-71
2024/04/03 02:01:44;;;;;;;2.83;2.00;;;11.20;99.90;;;;;;4929513;28;20484;-70
2024/04/03 02:04:09;;;;;;;6.43;2.20;;;11.20;99.90;;;;;;4935354;28;21130;-71
2024/04/03 02:06:36;;;;;;;2.07;1.73;;;11.10;99.90;;;;;;4933062;28;20448;-70
2024/04/03 02:09:03;;;;;;;3.33;1.53;;;11.30;99.90;;;;;;4929485;28;20223;-70
2024/04/03 02:11:29;;;;;;;3.10;2.40;;;11.30;99.90;;;;;;4934681;28;20574;-70
2024/04/03 02:13:56;;;;;;;3.20;1.93;;;11.30;99.90;;;;;;4935028;28;20475;-70
2024/04/03 02:16:27;;;;;;;1.67;1.40;;;11.30;99.90;;;;;;4935432;28;20460;-70
2024/04/03 02:18:53;;;;;;;2.43;1.83;;;11.30;99.90;;;;;;4931548;28;21076;-70
2024/04/03 02:21:19;;;;;;;3.00;1.70;;;11.20;99.90;;;;;;4936670;28;20562;-70
2024/04/03 02:23:45;;;;;;;3.63;1.80;;;11.20;99.90;;;;;;4931992;28;20331;-70
2024/04/03 02:26:12;;;;;;;1.30;0.90;;;11.30;99.90;;;;;;4938971;28;20534;-70
2024/04/03 02:28:38;;;;;;;2.00;1.40;;;11.20;99.90;;;;;;4934759;28;20204;-70
2024/04/03 02:31:05;;;;;;;6.87;1.50;;;11.20;99.90;;;;;;4929303;28;21995;-71
2024/04/03 02:33:32;;;;;;;1.30;1.20;;;11.20;99.90;;;;;;4931490;28;20244;-71
2024/04/03 02:35:58;;;;;;;2.63;2.17;;;11.20;99.90;;;;;;4927697;28;20463;-71
2024/04/03 02:38:24;;;;;;;1.87;1.00;;;11.30;99.90;;;;;;4930820;28;21107;-71
2024/04/03 02:40:51;;;;;;;2.33;1.20;;;11.30;99.90;;;;;;4928430;28;20468;-71
2024/04/03 02:43:17;;;;;;;4.30;1.73;;;11.20;99.90;;;;;;4934881;28;20883;-71
2024/04/03 02:45:44;;;;;;;1.60;1.43;;;11.20;99.90;;;;;;4933017;28;20456;-70
2024/04/03 02:48:09;;;;;;;2.07;1.27;;;11.20;99.90;;;;;;4934245;28;20204;-70
2024/04/03 02:50:37;;;;;;;1.83;1.17;;;11.20;99.90;;;;;;4933073;28;20588;-70
2024/04/03 02:53:03;;;;;;;12.20;2.67;;;11.20;99.90;;;;;;4936523;28;26204;-70
2024/04/03 02:55:36;;;;;;;5.43;1.43;;;11.20;99.90;;;;;;4937091;28;20459;-71
2024/04/03 02:58:02;;;;;;;1.43;1.07;;;11.20;99.90;;;;;;4937899;28;20212;-71
2024/04/03 03:00:29;;;;;;;3.63;2.90;;;11.20;99.90;;;;;;4935371;28;20467;-70
2024/04/03 03:02:55;;;;;;;3.43;1.57;;;11.20;99.90;;;;;;4933655;28;20489;-70
2024/04/03 03:05:21;;;;;;;1.50;1.30;;;11.20;99.90;;;;;;4939782;28;20978;-71
2024/04/03 03:07:48;;;;;;;3.93;1.30;;;11.30;99.90;;;;;;4942206;28;20232;-72
2024/04/03 03:10:15;;;;;;;1.60;1.27;;;11.30;99.90;;;;;;4933747;28;20504;-71
2024/04/03 03:12:41;;;;;;;1.53;1.10;;;11.20;99.90;;;;;;4935696;28;20495;-71
2024/04/03 03:15:09;;;;;;;5.53;2.00;;;11.30;99.90;;;;;;4933486;28;20459;-70
2024/04/03 03:17:34;;;;;;;5.67;1.60;;;11.20;99.90;;;;;;4936501;28;20231;-71
2024/04/03 03:20:01;;;;;;;5.43;1.57;;;11.30;99.90;;;;;;4932847;28;20791;-70
2024/04/03 03:22:27;;;;;;;3.30;1.53;;;11.30;99.90;;;;;;4936903;28;20224;-70
2024/04/03 03:24:55;;;;;;;3.10;1.53;;;11.30;99.90;;;;;;4930806;28;20471;-70
2024/04/03 03:27:21;;;;;;;1.10;1.00;;;11.40;99.90;;;;;;4933969;28;20205;-70
2024/04/03 03:29:47;;;;;;;1.30;1.07;;;11.40;99.90;;;;;;4931881;28;20918;-70
2024/04/03 03:32:13;;;;;;;1.60;1.30;;;11.40;99.90;;;;;;4931773;28;20232;-71
2024/04/03 03:34:40;;;;;;;2.50;1.80;;;11.40;99.90;;;;;;4936891;28;20848;-71
2024/04/03 03:37:07;;;;;;;2.80;1.40;;;11.40;99.90;;;;;;4937760;28;20201;-70
2024/04/03 03:39:33;;;;;;;2.40;1.50;;;11.50;99.90;;;;;;4939276;28;20449;-70
2024/04/03 03:42:00;;;;;;;3.37;1.30;;;11.40;99.90;;;;;;4937408;28;20500;-70
2024/04/03 03:44:27;;;;;;;3.63;3.13;;;11.20;99.90;;;;;;4941271;28;20491;-71
2024/04/03 03:46:53;;;;;;;2.10;1.70;;;11.20;99.90;;;;;;4932110;28;20483;-71
2024/04/03 03:55:04;;;;;;;4.40;1.50;;;11.10;99.90;;;;;;4910187;29;20457;-69
2024/04/03 03:57:32;;;;;;;1.87;1.43;;;11.00;99.90;;;;;;4914847;29;20796;-69
2024/04/03 03:59:59;;;;;;;4.57;2.27;;;10.90;99.90;;;;;;4912196;29;20880;-69
2024/04/03 04:02:26;;;;;;;1.30;1.10;;;10.90;99.90;;;;;;4916688;29;20487;-69
2024/04/03 04:04:54;;;;;;;1.70;1.30;;;11.00;99.90;;;;;;4912631;29;20496;-69
2024/04/03 04:07:20;;;;;;;14.07;1.80;;;10.90;99.90;;;;;;4909457;29;20979;-68
2024/04/03 04:09:48;;;;;;;3.33;1.40;;;10.90;99.90;;;;;;4912416;29;20457;-69
2024/04/03 04:12:14;;;;;;;2.40;1.53;;;10.90;99.90;;;;;;4906747;29;20481;-69
2024/04/03 04:14:48;;;;;;;4.90;1.90;;;11.00;99.90;;;;;;4913131;29;21030;-69
2024/04/03 04:17:14;;;;;;;2.27;1.57;;;11.00;99.90;;;;;;4913247;29;20949;-70
2024/04/03 04:19:41;;;;;;;1.43;1.30;;;11.00;99.90;;;;;;4917872;29;20458;-70
2024/04/03 04:22:07;;;;;;;10.80;2.53;;;11.10;99.90;;;;;;4916630;29;20492;-69
2024/04/03 04:24:36;;;;;;;2.47;1.30;;;11.10;99.90;;;;;;4919741;29;20486;-70
2024/04/03 04:27:04;;;;;;;12.43;1.97;;;11.10;99.90;;;;;;4927068;28;20471;-69
2024/04/03 04:29:31;;;;;;;4.67;2.20;;;11.00;99.90;;;;;;4941962;28;20981;-70
2024/04/03 04:31:59;;;;;;;5.13;1.67;;;11.00;99.90;;;;;;4930283;28;20927;-70
2024/04/03 04:34:25;;;;;;;2.40;1.60;;;11.00;99.90;;;;;;4931274;28;20503;-69
2024/04/03 04:36:51;;;;;;;4.17;1.97;;;11.00;99.90;;;;;;4929703;28;20439;-69
2024/04/03 04:39:18;;;;;;;5.50;1.87;;;11.00;99.90;;;;;;4936773;28;21208;-71
2024/04/03 04:41:48;;;;;;;5.33;2.00;;;11.00;99.90;;;;;;4941589;28;20227;-69
2024/04/03 04:44:14;;;;;;;2.23;1.60;;;11.00;99.90;;;;;;4933210;28;20662;-70
2024/04/03 04:46:40;;;;;;;3.73;1.77;;;11.00;99.90;;;;;;4928106;28;20472;-70
2024/04/03 04:49:08;;;;;;;9.77;2.87;;;11.10;99.90;;;;;;4941695;28;20474;-70
2024/04/03 04:51:34;;;;;;;5.27;2.03;;;11.10;99.90;;;;;;4941478;28;20227;-69
2024/04/03 04:54:01;;;;;;;3.83;2.50;;;11.10;99.90;;;;;;4944748;28;20442;-69
2024/04/03 04:56:27;;;;;;;6.73;3.43;;;10.90;99.90;;;;;;4941844;28;20474;-70
2024/04/03 04:58:54;;;;;;;7.33;2.90;;;10.90;99.90;;;;;;4934568;28;20851;-70
2024/04/03 05:01:20;;;;;;;3.27;1.70;;;10.90;99.90;;;;;;4938169;28;20231;-70
2024/04/03 05:03:46;;;;;;;2.93;2.07;;;10.90;99.90;;;;;;4947569;28;20483;-70
2024/04/03 05:06:17;;;;;;;4.00;2.60;;;10.80;99.90;;;;;;4943637;28;20214;-71
2024/04/03 05:08:45;;;;;;;4.50;2.10;;;10.80;99.90;;;;;;4940555;28;20469;-71
2024/04/03 05:11:11;;;;;;;3.40;2.00;;;10.90;99.90;;;;;;4934658;28;20506;-70
2024/04/03 05:13:38;;;;;;;10.80;2.80;;;10.90;99.90;;;;;;4942881;28;20448;-69
2024/04/03 05:16:05;;;;;;;4.67;3.43;;;10.90;99.90;;;;;;4940030;28;20481;-69
2024/04/03 05:18:32;;;;;;;6.70;2.43;;;11.00;99.90;;;;;;4947277;28;20482;-69
2024/04/03 05:20:58;;;;;;;5.27;2.70;;;10.90;99.90;;;;;;4931779;28;20475;-69
2024/04/03 05:23:27;;;;;;;6.10;2.93;;;10.90;99.90;;;;;;4947440;28;20515;-69
2024/04/03 05:25:56;;;;;;;3.40;2.60;;;11.00;99.90;;;;;;4937089;28;20478;-70
2024/04/03 05:28:26;;;;;;;7.47;3.27;;;11.10;99.90;;;;;;4942008;28;20466;-70
2024/04/03 05:30:52;;;;;;;3.80;2.90;;;11.10;99.90;;;;;;4939478;28;20472;-70
2024/04/03 05:33:19;;;;;;;4.33;2.27;;;11.10;99.90;;;;;;4947428;28;20463;-70
2024/04/03 05:35:53;;;;;;;2.57;2.37;;;11.10;99.90;;;;;;4940820;28;20800;-69
2024/04/03 05:38:20;;;;;;;4.70;2.60;;;11.10;99.90;;;;;;4941771;28;20518;-70
2024/04/03 05:40:47;;;;;;;4.50;2.90;;;11.10;99.90;;;;;;4939823;28;20463;-70
2024/04/03 05:43:14;;;;;;;4.40;2.97;;;11.20;99.90;;;;;;4939935;28;20521;-70
2024/04/03 05:45:40;;;;;;;3.73;2.70;;;11.30;99.90;;;;;;4947815;28;20847;-70
2024/04/03 05:48:08;;;;;;;3.50;2.20;;;11.30;99.90;;;;;;4939425;28;20464;-69
2024/04/03 05:50:34;;;;;;;3.00;2.00;;;11.30;99.90;;;;;;4944810;28;20208;-70
2024/04/03 05:53:00;;;;;;;4.40;2.87;;;11.40;99.90;;;;;;4950409;28;20490;-70
2024/04/03 05:55:26;;;;;;;2.60;2.40;;;11.50;99.90;;;;;;4944405;28;20770;-69
2024/04/03 05:57:54;;;;;;;5.90;3.03;;;11.50;99.90;;;;;;4941348;28;20479;-68
2024/04/03 06:00:20;;;;;;;7.93;2.87;;;11.60;99.90;;;;;;4940793;28;20208;-69
2024/04/03 06:02:47;;;;;;;3.77;2.87;;;11.60;99.90;;;;;;4949965;28;20478;-69
2024/04/03 06:05:13;;;;;;;6.50;2.83;;;11.60;99.90;;;;;;4939560;28;21192;-69
2024/04/03 06:07:39;;;;;;;10.33;5.07;;;11.60;99.90;;;;;;4940952;28;20463;-70
2024/04/03 06:10:06;;;;;;;2.33;2.13;;;11.50;99.90;;;;;;4939080;28;20200;-70
2024/04/03 06:12:33;;;;;;;11.50;3.60;;;11.50;99.90;;;;;;4946567;28;20944;-70
2024/04/03 06:15:00;;;;;;;4.03;2.80;;;11.50;99.90;;;;;;4940436;28;21055;-69
2024/04/03 06:17:27;;;;;;;7.60;3.00;;;11.50;99.90;;;;;;4942274;28;20470;-70
2024/04/03 06:19:53;;;;;;;3.57;2.60;;;11.60;99.90;;;;;;4941931;28;20849;-70
2024/04/03 06:22:20;;;;;;;5.70;3.43;;;11.60;99.90;;;;;;4939178;28;20458;-70
2024/04/03 06:24:45;;;;;;;4.77;2.87;;;11.60;99.90;;;;;;4940167;28;20232;-69
2024/04/03 06:27:12;;;;;;;7.27;3.60;;;11.70;99.90;;;;;;4941716;28;20452;-70
2024/04/03 06:29:38;;;;;;;5.33;3.57;;;11.80;99.90;;;;;;4939115;28;20205;-70
2024/04/03 06:32:07;;;;;;;4.50;2.83;;;11.80;99.90;;;;;;4944523;28;20574;-70
2024/04/03 06:34:33;;;;;;;6.30;3.33;;;11.70;99.90;;;;;;4948616;28;20484;-69
2024/04/03 06:37:00;;;;;;;5.20;3.60;;;11.60;99.90;;;;;;4946130;28;21042;-70
2024/04/03 06:39:25;;;;;;;10.53;5.03;;;11.70;99.90;;;;;;4941544;28;20208;-69
2024/04/03 06:41:52;;;;;;;13.80;5.40;;;11.60;99.90;;;;;;4934498;28;20476;-69
2024/04/03 06:44:18;;;;;;;15.10;4.53;;;11.70;99.90;;;;;;4934950;28;20235;-69
2024/04/03 06:49:15;;;;;;;7.80;3.50;;;11.80;99.90;;;;;;4894151;29;20233;-70
2024/04/03 06:51:40;;;;;;;5.23;2.80;;;11.80;99.90;;;;;;4892198;29;20491;-69
2024/04/03 06:54:08;;;;;;;3.63;2.37;;;11.80;99.90;;;;;;4881077;29;20530;-69
2024/04/03 06:56:34;;;;;;;4.70;2.50;;;11.70;99.90;;;;;;4878713;29;20206;-69
2024/04/03 06:59:02;;;;;;;2.30;1.20;;;11.80;99.90;;;;;;4880782;29;20451;-70
2024/04/03 07:01:28;;;;;;;6.33;2.40;;;11.80;99.90;;;;;;4888746;29;20321;-69
2024/04/03 07:03:56;;;;;;;2.93;2.13;;;11.80;99.90;;;;;;4884411;29;20467;-69
2024/04/03 07:06:23;;;;;;;4.37;1.57;;;11.70;99.90;;;;;;4889588;29;20294;-70
2024/04/03 07:08:50;;;;;;;9.60;1.93;;;11.80;99.90;;;;;;4884555;29;20551;-70
2024/04/03 07:11:15;;;;;;;1.20;0.90;;;11.80;99.90;;;;;;4888235;29;20505;-70
2024/04/03 07:13:42;;;;;;;3.40;2.90;;;11.80;99.90;;;;;;4891492;29;20454;-70
2024/04/03 07:16:08;;;;;;;2.53;2.17;;;11.90;99.90;;;;;;4887150;29;20213;-70
2024/04/03 07:18:37;;;;;;;1.53;1.30;;;12.10;99.90;;;;;;4876124;29;20889;-70
2024/04/03 07:21:04;;;;;;;5.93;1.50;;;12.10;99.90;;;;;;4888723;29;20230;-70
2024/04/03 07:23:32;;;;;;;2.30;1.43;;;12.10;99.90;;;;;;4888468;29;20500;-70
2024/04/03 07:25:58;;;;;;;4.70;2.27;;;12.10;99.90;;;;;;4889227;29;20474;-70
2024/04/03 07:28:26;;;;;;;2.20;2.00;;;12.10;99.90;;;;;;4885734;29;20833;-70
2024/04/03 07:30:53;;;;;;;2.50;1.10;;;12.00;99.90;;;;;;4883489;29;21323;-70
2024/04/03 07:33:20;;;;;;;3.80;1.03;;;12.00;99.90;;;;;;4879904;29;20561;-70
2024/04/03 07:35:46;;;;;;;2.30;0.97;;;12.10;99.90;;;;;;4885275;29;20469;-71
2024/04/03 07:38:13;;;;;;;7.67;1.40;;;12.20;99.90;;;;;;4891793;29;20455;-71
2024/04/03 07:40:44;;;;;;;3.47;1.50;;;12.20;99.90;;;;;;4891949;29;20215;-71
2024/04/03 07:43:11;;;;;;;2.90;1.00;;;12.10;99.90;;;;;;4879945;29;20485;-70
2024/04/03 07:45:36;;;;;;;3.07;1.70;;;12.20;99.90;;;;;;4879992;29;20508;-71
2024/04/03 07:48:04;;;;;;;3.50;0.90;;;12.00;99.90;;;;;;4881686;29;20474;-71
2024/04/03 07:50:29;;;;;;;1.90;1.20;;;12.20;99.90;;;;;;4880213;29;20209;-71
2024/04/03 07:52:56;;;;;;;1.60;1.10;;;12.10;99.90;;;;;;4883309;29;20819;-70
2024/04/03 07:55:22;;;;;;;2.03;1.23;;;12.20;99.90;;;;;;4879736;29;20203;-71
2024/04/03 07:57:50;;;;;;;3.80;1.20;;;12.20;99.90;;;;;;4880906;29;20467;-71
2024/04/03 08:00:16;;;;;;;1.60;1.17;;;12.20;99.90;;;;;;4877456;29;20469;-70
2024/04/03 08:02:44;;;;;;;1.00;0.90;;;12.30;99.90;;;;;;4879630;29;20482;-69
2024/04/03 08:05:11;;;;;;;2.83;1.07;;;12.30;99.90;;;;;;4877710;29;20615;-70
2024/04/03 08:07:40;;;;;;;1.67;1.17;;;12.20;99.90;;;;;;4881851;29;20923;-70
2024/04/03 08:10:07;;;;;;;1.73;1.20;;;12.20;99.90;;;;;;4876347;29;20474;-69
2024/04/03 08:12:34;;;;;;;1.30;1.20;;;12.20;99.90;;;;;;4886303;29;20985;-69
2024/04/03 08:15:01;;;;;;;1.47;1.10;;;12.20;99.90;;;;;;4884239;29;20470;-69
2024/04/03 08:17:29;;;;;;;2.33;1.13;;;12.20;99.90;;;;;;4866821;29;20470;-69
2024/04/03 08:19:55;;;;;;;1.20;0.93;;;12.10;99.90;;;;;;4877965;29;20467;-71
2024/04/03 08:22:22;;;;;;;1.87;0.97;;;12.00;99.90;;;;;;4875295;29;20520;-70
2024/04/03 08:24:48;;;;;;;1.80;1.10;;;12.20;99.90;;;;;;4878338;29;20498;-70
2024/04/03 08:27:16;;;;;;;6.87;0.90;;;12.30;99.90;;;;;;4875433;29;20462;-70
2024/04/03 08:29:43;;;;;;;2.37;1.00;;;12.30;99.90;;;;;;4877449;29;21008;-70
2024/04/03 08:32:11;;;;;;;1.73;1.13;;;12.50;99.90;;;;;;4876340;29;21014;-69
2024/04/03 08:34:37;;;;;;;7.70;1.67;;;12.50;99.90;;;;;;4878085;29;20479;-70
2024/04/03 08:37:05;;;;;;;1.70;1.50;;;12.50;99.90;;;;;;4877579;29;20462;-70
2024/04/03 08:39:31;;;;;;;1.00;0.80;;;12.70;99.90;;;;;;4880966;29;20546;-70
2024/04/03 08:41:59;;;;;;;1.10;1.00;;;12.90;99.90;;;;;;4882304;29;20864;-70
2024/04/03 08:44:28;;;;;;;2.23;1.10;;;12.80;99.90;;;;;;4883713;29;20490;-70
2024/04/03 08:46:55;;;;;;;3.27;1.20;;;12.80;99.90;;;;;;4879986;29;20501;-72
2024/04/03 08:49:27;;;;;;;1.50;1.03;;;12.60;99.90;;;;;;4879773;29;20477;-72
2024/04/03 08:52:00;;;;;;;1.10;0.90;;;12.70;99.90;;;;;;4884195;29;20494;-71
2024/04/03 08:54:26;;;;;;;1.87;1.07;;;12.60;99.90;;;;;;4880922;29;20990;-71
2024/04/03 08:56:53;;;;;;;9.40;2.57;;;12.60;99.90;;;;;;4888378;29;20472;-72
2024/04/03 08:59:20;;;;;;;5.57;1.03;;;12.60;99.90;;;;;;4887984;29;20472;-72
2024/04/03 09:01:49;;;;;;;1.53;1.17;;;12.70;99.90;;;;;;4879812;29;20510;-70
2024/04/03 09:04:16;;;;;;;3.20;1.57;;;12.60;99.90;;;;;;4878033;29;20581;-70
2024/04/03 09:06:45;;;;;;;3.00;1.63;;;12.60;99.90;;;;;;4887006;29;21021;-70
2024/04/03 09:09:21;;;;;;;1.40;1.30;;;12.70;99.90;;;;;;4882195;29;20827;-70
2024/04/03 09:11:50;;;;;;;4.27;1.40;;;12.80;99.90;;;;;;4884521;29;20623;-70
2024/04/03 09:14:19;;;;;;;3.33;1.20;;;12.70;99.90;;;;;;4884786;29;20495;-69
2024/04/03 09:16:46;;;;;;;2.33;1.23;;;12.70;99.90;;;;;;4882469;29;20491;-70
2024/04/03 09:19:13;;;;;;;4.70;1.40;;;13.00;99.90;;;;;;4878951;29;20473;-69
2024/04/03 09:21:40;;;;;;;1.50;1.30;;;13.00;99.90;;;;;;4881077;29;20470;-70
2024/04/03 09:24:08;;;;;;;2.07;1.03;;;13.00;99.90;;;;;;4881549;29;20487;-70
2024/04/03 09:26:34;;;;;;;1.33;0.93;;;13.30;99.90;;;;;;4878946;29;20884;-70
2024/04/03 09:29:01;;;;;;;1.20;0.80;;;13.20;99.90;;;;;;4877683;29;20923;-70
2024/04/03 09:31:28;;;;;;;4.30;1.20;;;13.00;99.90;;;;;;4882563;29;20600;-69
2024/04/03 09:33:55;;;;;;;1.00;0.90;;;13.10;99.90;;;;;;4882746;29;20497;-69
2024/04/03 09:36:22;;;;;;;2.00;1.77;;;13.20;99.90;;;;;;4886329;29;20503;-70
2024/04/03 09:38:49;;;;;;;2.40;1.33;;;13.20;99.90;;;;;;4884419;29;21140;-71
2024/04/03 09:41:18;;;;;;;0.90;0.60;;;13.00;99.90;;;;;;4880788;29;20474;-71
2024/04/03 09:43:47;;;;;;;2.40;1.60;;;12.80;99.90;;;;;;4887809;29;20476;-71
2024/04/03 09:46:14;;;;;;;1.17;0.70;;;12.90;99.90;;;;;;4888900;29;20485;-72
2024/04/03 09:48:41;;;;;;;4.30;1.93;;;13.10;99.90;;;;;;4889265;29;20538;-71
2024/04/03 09:51:09;;;;;;;1.43;1.17;;;13.30;99.90;;;;;;4882031;29;20490;-71
2024/04/03 09:53:36;;;;;;;2.00;1.23;;;13.40;99.90;;;;;;4887912;29;20493;-71
2024/04/03 09:56:03;;;;;;;2.10;1.23;;;13.40;99.90;;;;;;4884862;29;20529;-71
2024/04/03 09:58:35;;;;;;;0.97;0.80;;;13.40;99.90;;;;;;4881151;29;20438;-71
2024/04/03 10:01:04;;;;;;;2.80;1.10;;;13.60;99.90;;;;;;4880544;29;20637;-70
2024/04/03 10:03:32;;;;;;;1.20;1.00;;;13.60;99.90;;;;;;4880804;29;20478;-70
2024/04/03 10:05:59;;;;;;;6.73;1.23;;;13.80;99.90;;;;;;4881575;29;20501;-71
2024/04/03 10:08:32;;;;;;;1.37;1.00;;;13.90;99.90;;;;;;4874179;29;20573;-70
2024/04/03 10:11:04;;;;;;;0.90;0.70;;;14.00;99.90;;;;;;4888102;29;20453;-70
2024/04/03 10:13:32;;;;;;;1.10;0.80;;;13.90;99.90;;;;;;4880709;29;20466;-70
2024/04/03 10:16:03;;;;;;;1.37;1.00;;;13.80;99.90;;;;;;4878428;29;20463;-70
2024/04/03 10:18:30;;;;;;;1.93;1.00;;;13.90;99.90;;;;;;4879820;29;20461;-69
2024/04/03 10:21:00;;;;;;;1.10;0.90;;;13.90;99.90;;;;;;4879527;29;20470;-71
2024/04/03 10:23:26;;;;;;;1.13;0.80;;;13.90;99.90;;;;;;4875896;29;21577;-70
2024/04/03 10:25:53;;;;;;;1.40;0.97;;;13.90;99.90;;;;;;4879994;29;20827;-70
2024/04/03 10:28:19;;;;;;;3.30;1.83;;;14.20;99.90;;;;;;4885542;29;20726;-70
2024/04/03 10:30:54;;;;;;;2.40;0.90;;;14.50;99.90;;;;;;4884075;29;20561;-70
2024/04/03 10:33:23;;;;;;;0.90;0.60;;;14.60;99.90;;;;;;4883851;29;20812;-70
2024/04/03 10:35:50;;;;;;;1.77;1.00;;;14.70;99.90;;;;;;4887828;29;20462;-70
2024/04/03 10:38:16;;;;;;;1.40;1.00;;;14.90;99.90;;;;;;4887058;29;20537;-70
2024/04/03 10:40:46;;;;;;;1.30;0.90;;;15.00;99.90;;;;;;4893468;29;20927;-70
2024/04/03 10:43:12;;;;;;;1.00;0.80;;;15.00;99.90;;;;;;4887732;29;20214;-71
2024/04/03 10:45:39;;;;;;;1.33;0.90;;;14.70;99.90;;;;;;4887841;29;20627;-71
2024/04/03 10:48:09;;;;;;;1.50;1.10;;;14.40;99.90;;;;;;4879448;29;20896;-70
2024/04/03 10:50:37;;;;;;;1.70;1.47;;;14.50;99.90;;;;;;4890184;29;20508;-70
2024/04/03 10:53:03;;;;;;;6.03;1.40;;;14.30;99.90;;;;;;4883371;29;20486;-70
2024/04/03 10:55:31;;;;;;;0.90;0.70;;;14.10;99.90;;;;;;4888533;29;20459;-70
2024/04/03 10:58:00;;;;;;;1.97;0.93;;;14.10;99.90;;;;;;4890556;29;20458;-71
2024/04/03 11:00:33;;;;;;;1.00;0.80;;;14.30;99.90;;;;;;4889054;29;20478;-69
2024/04/03 11:03:01;;;;;;;1.20;0.90;;;14.50;99.90;;;;;;4890307;29;20558;-69
2024/04/03 11:05:30;;;;;;;2.13;1.10;;;14.60;99.90;;;;;;4879318;29;20585;-71
2024/04/03 11:07:57;;;;;;;2.80;1.47;;;14.50;99.90;;;;;;4880774;29;20478;-71
2024/04/03 11:10:25;;;;;;;1.00;0.70;;;14.30;99.90;;;;;;4880872;29;20530;-70
2024/04/03 11:13:02;;;;;;;1.50;0.97;;;14.00;99.90;;;;;;4881821;29;20494;-69
2024/04/03 11:15:28;;;;;;;5.73;0.90;;;14.00;99.90;;;;;;4885378;29;20459;-69
2024/04/03 11:17:54;;;;;;;0.90;0.60;;;14.00;99.90;;;;;;4887222;29;20959;-70
2024/04/03 11:20:24;;;;;;;1.00;0.80;;;13.90;99.90;;;;;;4883352;29;20455;-70
2024/04/03 11:22:53;;;;;;;3.20;0.80;;;13.70;99.90;;;;;;4886129;29;20596;-70
2024/04/03 11:25:20;;;;;;;1.00;0.70;;;14.00;99.90;;;;;;4880776;29;20483;-69
2024/04/03 11:27:46;;;;;;;1.20;0.90;;;14.20;99.90;;;;;;4878257;29;20982;-69
2024/04/03 11:30:13;;;;;;;4.00;1.10;;;14.20;99.90;;;;;;4883575;29;20527;-70
2024/04/03 11:32:38;;;;;;;3.57;1.00;;;14.40;99.90;;;;;;4878068;29;21690;-70
2024/04/03 11:35:08;;;;;;;1.20;1.00;;;14.50;99.90;;;;;;4882372;29;20454;-70
2024/04/03 11:37:35;;;;;;;1.30;0.97;;;14.50;99.90;;;;;;4879948;29;20214;-70
2024/04/03 11:40:03;;;;;;;1.10;0.80;;;14.30;99.90;;;;;;4874887;29;21162;-69
2024/04/03 11:42:30;;;;;;;1.10;0.80;;;14.10;99.90;;;;;;4887785;29;21070;-71
2024/04/03 11:44:56;;;;;;;1.40;0.87;;;13.80;99.90;;;;;;4884421;29;20498;-69
2024/04/03 11:47:22;;;;;;;1.77;1.17;;;13.60;99.90;;;;;;4883760;29;20498;-70
2024/04/03 11:49:49;;;;;;;1.10;0.70;;;13.80;99.90;;;;;;4881755;29;20928;-69
2024/04/03 11:52:16;;;;;;;1.23;0.80;;;14.10;99.90;;;;;;4885504;29;20231;-68
2024/04/03 11:54:43;;;;;;;1.00;0.73;;;14.00;99.90;;;;;;4885715;29;20443;-69
2024/04/03 11:57:10;;;;;;;1.00;0.70;;;14.10;99.90;;;;;;4886698;29;20827;-71
2024/04/03 11:59:37;;;;;;;1.30;1.00;;;14.40;99.90;;;;;;4883920;29;20489;-70
2024/04/03 12:02:03;;;;;;;1.00;0.80;;;14.50;99.90;;;;;;4885042;29;21047;-69
2024/04/03 12:04:33;;;;;;;1.00;0.80;;;14.90;99.90;;;;;;4877874;29;20569;-70
2024/04/03 12:06:58;;;;;;;1.07;0.80;;;14.80;99.90;;;;;;4884463;29;20470;-69
2024/04/03 12:09:25;;;;;;;1.00;0.80;;;14.50;99.90;;;;;;4884754;29;20461;-69
2024/04/03 12:11:52;;;;;;;2.43;1.00;;;14.60;99.90;;;;;;4883309;29;20592;-69
2024/04/03 12:14:20;;;;;;;1.10;0.83;;;14.70;99.90;;;;;;4885727;29;20482;-71
2024/04/03 12:16:52;;;;;;;1.20;0.90;;;15.00;99.90;;;;;;4879684;29;20205;-69
2024/04/03 12:19:26;;;;;;;1.10;0.90;;;14.80;99.90;;;;;;4896677;29;20601;-71
2024/04/03 12:21:53;;;;;;;1.43;1.00;;;14.60;99.90;;;;;;4889847;29;20504;-70
2024/04/03 12:24:20;;;;;;;3.00;0.97;;;14.60;99.90;;;;;;4881192;29;20497;-69
2024/04/03 12:26:46;;;;;;;1.03;0.80;;;14.30;99.90;;;;;;4885727;29;20484;-69
2024/04/03 12:29:13;;;;;;;1.50;0.80;;;14.50;99.90;;;;;;4888164;29;20468;-71
2024/04/03 12:31:40;;;;;;;1.40;1.00;;;14.60;99.90;;;;;;4877847;29;21461;-69
2024/04/03 12:34:09;;;;;;;1.30;1.03;;;14.40;99.90;;;;;;4886303;29;20485;-70
2024/04/03 12:36:35;;;;;;;1.33;0.93;;;14.20;99.90;;;;;;4875337;29;20466;-69
2024/04/03 12:39:03;;;;;;;1.07;0.80;;;14.30;99.90;;;;;;4879640;29;20450;-70
2024/04/03 12:41:30;;;;;;;1.00;0.77;;;14.30;99.90;;;;;;4870203;29;20680;-69
2024/04/03 12:43:55;;;;;;;1.30;0.87;;;14.20;99.90;;;;;;4878867;29;20462;-69
2024/04/03 12:46:22;;;;;;;1.03;0.80;;;14.10;99.90;;;;;;4873692;29;20490;-70
2024/04/03 12:48:49;;;;;;;1.60;0.83;;;13.90;99.90;;;;;;4877508;29;20723;-71
2024/04/03 12:51:17;;;;;;;3.60;1.10;;;13.80;99.90;;;;;;4879010;29;20478;-71
2024/04/03 12:53:42;;;;;;;1.10;0.70;;;13.60;99.90;;;;;;4879699;29;20523;-71